ADDS METAR Data INFO
IDs: Format: Raw Decoded Include TAF

Data at: 0734 UTC 20 Nov 2017

METAR for:KILN (Wilmington Arpt, OH, US)
Text:KILN 200654Z AUTO 25007KT 10SM CLR M03/M05 A3015 RMK AO2 SLP235 T10331050
Temperature: -3.3°C ( 26°F)
Dewpoint: -5.0°C ( 23°F) [RH = 88%]
Pressure (altimeter):30.15 inches Hg (1021.1 mb) [Sea level pressure: 1023.5 mb]
Winds:from the WSW (250 degrees) at 8 MPH (7 knots; 3.6 m/s)
Visibility:10 or more sm (16+ km)
Ceiling:at least 12,000 feet AGL
Clouds:sky clear below 12,000 feet AGL
QC Flag:automated observation with no human augmentation